createdAt,value
2018-08-22T00:02:13.572Z,18.00
2018-08-22T00:04:42.017Z,18.00
2018-08-22T00:07:10.536Z,18.00
2018-08-22T00:09:38.976Z,17.90
2018-08-22T00:12:07.447Z,17.90
2018-08-22T00:14:36.117Z,17.90
2018-08-22T00:17:04.642Z,17.90
2018-08-22T00:19:33.275Z,17.90
2018-08-22T00:22:01.738Z,17.80
2018-08-22T00:24:30.252Z,17.80
2018-08-22T00:26:58.711Z,17.80
2018-08-22T00:29:27.171Z,17.80
2018-08-22T00:31:55.851Z,17.70
2018-08-22T00:34:24.306Z,17.70
2018-08-22T00:36:52.766Z,17.70
2018-08-22T00:39:21.202Z,17.70
2018-08-22T00:41:49.882Z,17.70
2018-08-22T00:44:18.319Z,17.70
2018-08-22T00:46:46.792Z,17.70
2018-08-22T00:49:15.243Z,17.70
2018-08-22T00:51:43.702Z,17.60
2018-08-22T00:54:12.119Z,17.60
2018-08-22T00:56:40.571Z,17.70
2018-08-22T00:59:09.023Z,17.60
2018-08-22T01:01:37.526Z,17.60
2018-08-22T01:04:05.986Z,17.60
2018-08-22T01:06:34.448Z,17.60
2018-08-22T01:09:02.938Z,17.60
2018-08-22T01:11:31.392Z,17.60
2018-08-22T01:14:00.008Z,17.60
2018-08-22T01:16:28.523Z,17.60
2018-08-22T01:18:57.018Z,17.60
2018-08-22T01:21:25.495Z,17.50
2018-08-22T01:23:53.968Z,17.60
2018-08-22T01:26:22.433Z,17.60
2018-08-22T01:28:50.858Z,17.60
2018-08-22T01:31:19.310Z,17.60
2018-08-22T01:33:47.768Z,17.70
2018-08-22T01:36:16.215Z,17.70
2018-08-22T01:38:44.898Z,17.70
2018-08-22T01:41:13.410Z,17.70
2018-08-22T01:43:41.838Z,17.80
2018-08-22T01:46:10.306Z,17.80
2018-08-22T01:48:38.750Z,17.80
2018-08-22T01:51:07.220Z,17.80
2018-08-22T01:53:35.654Z,17.80
2018-08-22T01:56:04.319Z,17.80
2018-08-22T01:58:32.760Z,17.90
2018-08-22T02:01:01.261Z,17.90
2018-08-22T02:03:29.703Z,17.90
2018-08-22T02:05:58.154Z,18.00
2018-08-22T02:08:26.620Z,18.00
2018-08-22T02:10:55.027Z,18.00
2018-08-22T02:13:23.490Z,18.00
2018-08-22T02:15:52.230Z,18.00
2018-08-22T02:18:20.710Z,18.00
2018-08-22T02:20:49.250Z,18.00
2018-08-22T02:23:17.711Z,18.10
2018-08-22T02:25:46.203Z,18.00
2018-08-22T02:28:14.671Z,18.00
2018-08-22T02:30:43.119Z,18.00
2018-08-22T02:33:11.631Z,18.00
2018-08-22T02:35:40.085Z,18.00
2018-08-22T02:38:08.544Z,18.00
2018-08-22T02:40:37.015Z,18.00
2018-08-22T02:43:05.470Z,17.90
2018-08-22T02:45:33.895Z,17.90
2018-08-22T02:48:02.348Z,17.80
2018-08-22T02:50:30.806Z,17.80
2018-08-22T02:52:59.271Z,17.80
2018-08-22T02:55:27.724Z,17.80
2018-08-22T02:57:56.187Z,17.80
2018-08-22T03:00:24.659Z,17.80
2018-08-22T03:02:53.122Z,17.70
2018-08-22T03:05:21.543Z,17.70
2018-08-22T03:07:50.347Z,17.70
2018-08-22T03:10:18.773Z,17.70
2018-08-22T03:12:47.234Z,17.70
2018-08-22T03:15:15.676Z,17.70
2018-08-22T03:17:44.135Z,17.60
2018-08-22T03:20:12.571Z,17.60
2018-08-22T03:22:41.059Z,17.60
2018-08-22T03:25:09.516Z,17.50
2018-08-22T03:27:37.959Z,17.50
2018-08-22T03:30:06.823Z,17.60
2018-08-22T03:32:35.335Z,17.50
2018-08-22T03:35:03.992Z,17.50
2018-08-22T03:37:32.471Z,17.50
2018-08-22T03:40:00.911Z,17.50
2018-08-22T03:42:29.360Z,17.50
2018-08-22T03:44:57.799Z,17.50
2018-08-22T03:47:26.262Z,17.50
2018-08-22T03:49:54.720Z,17.50
2018-08-22T03:52:23.185Z,17.50
2018-08-22T03:54:51.617Z,17.50
2018-08-22T03:57:20.086Z,17.50
2018-08-22T03:59:48.847Z,17.50
2018-08-22T04:02:17.332Z,17.50
2018-08-22T04:04:45.775Z,17.60
2018-08-22T04:07:14.229Z,17.60
2018-08-22T04:09:42.935Z,17.60
2018-08-22T04:12:11.393Z,17.50
2018-08-22T04:14:40.047Z,17.50
2018-08-22T04:17:08.490Z,17.50
2018-08-22T04:19:36.943Z,17.50
2018-08-22T04:22:05.390Z,17.50
2018-08-22T04:24:33.859Z,17.50
2018-08-22T04:27:02.356Z,17.50
2018-08-22T04:29:30.824Z,17.40
2018-08-22T04:31:59.274Z,17.40
2018-08-22T04:34:27.759Z,17.30
2018-08-22T04:36:56.203Z,17.30
2018-08-22T04:39:24.671Z,17.30
2018-08-22T04:41:53.116Z,17.30
2018-08-22T04:44:21.620Z,17.30
2018-08-22T04:46:50.072Z,17.30
2018-08-22T04:49:18.575Z,17.30
2018-08-22T04:51:47.038Z,17.30
2018-08-22T04:54:15.538Z,17.30
2018-08-22T04:56:43.978Z,17.30
2018-08-22T04:59:12.483Z,17.30
2018-08-22T05:01:40.971Z,17.40
2018-08-22T05:04:09.490Z,17.40
2018-08-22T05:06:37.918Z,17.50
2018-08-22T05:09:07.674Z,17.50
2018-08-22T05:11:36.102Z,17.50
2018-08-22T05:14:04.987Z,17.60
2018-08-22T05:16:33.527Z,17.70
2018-08-22T05:19:02.040Z,17.70
2018-08-22T05:21:30.489Z,17.80
2018-08-22T05:23:58.948Z,17.80
2018-08-22T05:26:27.399Z,17.80
2018-08-22T05:28:55.851Z,17.90
2018-08-22T05:31:24.333Z,17.90
2018-08-22T05:33:52.816Z,18.00
2018-08-22T05:36:21.360Z,18.00
2018-08-22T05:38:49.851Z,18.10
2018-08-22T05:41:18.378Z,18.20
2018-08-22T05:43:46.834Z,18.20
2018-08-22T05:46:15.272Z,18.30
2018-08-22T05:48:43.798Z,18.40
2018-08-22T05:51:12.224Z,18.40
2018-08-22T05:53:40.686Z,18.50
2018-08-22T05:56:09.124Z,18.50
2018-08-22T05:58:37.618Z,18.50
2018-08-22T06:01:06.090Z,18.50
2018-08-22T06:03:34.564Z,18.60
2018-08-22T06:06:04.358Z,18.70
2018-08-22T06:08:33.366Z,18.90
2018-08-22T06:11:02.591Z,19.10
2018-08-22T06:13:31.084Z,19.10
2018-08-22T06:15:59.543Z,19.20
2018-08-22T06:18:28.106Z,19.30
2018-08-22T06:20:56.610Z,19.40
2018-08-22T06:23:25.059Z,19.70
2018-08-22T06:25:53.650Z,19.80
2018-08-22T06:28:22.153Z,20.00
2018-08-22T06:30:50.614Z,20.10
2018-08-22T06:33:19.068Z,20.30
2018-08-22T06:35:47.942Z,20.30
2018-08-22T06:38:16.522Z,20.30
2018-08-22T06:40:45.008Z,20.40
2018-08-22T06:43:14.517Z,20.40
2018-08-22T06:45:43.015Z,20.50
2018-08-22T06:48:11.460Z,20.60
2018-08-22T06:50:40.041Z,20.70
2018-08-22T06:53:08.458Z,20.90
2018-08-22T06:55:36.954Z,21.00
2018-08-22T06:58:05.382Z,21.30
2018-08-22T07:00:33.843Z,21.40
2018-08-22T07:03:02.292Z,21.50
2018-08-22T07:05:30.783Z,21.70
2018-08-22T07:07:59.623Z,21.90
2018-08-22T07:10:28.220Z,22.00
2018-08-22T07:12:56.663Z,22.00
2018-08-22T07:15:25.132Z,22.00
2018-08-22T07:17:53.618Z,21.90
2018-08-22T07:20:22.056Z,21.80
2018-08-22T07:22:50.496Z,21.80
2018-08-22T07:25:18.952Z,21.80
2018-08-22T07:27:47.419Z,21.90
2018-08-22T07:30:15.979Z,21.80
2018-08-22T07:32:44.559Z,21.80
2018-08-22T07:35:13.026Z,21.80
2018-08-22T07:37:41.784Z,21.80
2018-08-22T07:40:10.295Z,21.90
2018-08-22T07:42:38.746Z,21.90
2018-08-22T07:45:07.493Z,22.10
2018-08-22T07:47:35.929Z,22.30
2018-08-22T07:50:05.053Z,22.50
2018-08-22T07:52:33.671Z,22.70
2018-08-22T07:55:02.123Z,22.80
2018-08-22T07:57:30.579Z,23.10
2018-08-22T07:59:59.037Z,23.30
2018-08-22T08:02:27.489Z,23.50
2018-08-22T08:04:56.315Z,23.60
2018-08-22T08:07:24.770Z,23.80
2018-08-22T08:09:53.222Z,24.00
2018-08-22T08:12:25.895Z,24.10
2018-08-22T08:14:59.842Z,24.40
2018-08-22T08:17:28.491Z,24.60
2018-08-22T08:19:56.984Z,24.70
2018-08-22T08:22:25.591Z,24.90
2018-08-22T08:24:54.068Z,25.00
2018-08-22T08:28:24.830Z,25.00
2018-08-22T08:30:53.284Z,25.10
2018-08-22T08:33:21.728Z,25.20
2018-08-22T08:35:50.237Z,25.40
2018-08-22T08:38:18.837Z,25.50
2018-08-22T08:40:47.303Z,25.60
2018-08-22T08:43:15.761Z,25.80
2018-08-22T08:45:44.406Z,25.90
2018-08-22T08:48:12.839Z,26.10
2018-08-22T08:50:41.315Z,26.30
2018-08-22T08:53:09.759Z,26.30
2018-08-22T08:55:38.206Z,26.50
2018-08-22T08:58:06.714Z,26.60
2018-08-22T09:00:35.344Z,26.70
2018-08-22T09:03:03.791Z,26.80
2018-08-22T09:05:32.220Z,26.80
2018-08-22T09:08:00.701Z,27.00
2018-08-22T09:10:29.131Z,27.10
2018-08-22T09:12:57.611Z,27.20
2018-08-22T09:15:26.156Z,27.30
2018-08-22T09:17:54.754Z,27.20
2018-08-22T09:20:23.199Z,27.30
2018-08-22T09:22:51.663Z,27.50
2018-08-22T09:25:20.102Z,27.70
2018-08-22T09:27:48.545Z,27.70
2018-08-22T09:30:16.959Z,27.70
2018-08-22T09:32:45.409Z,27.80
2018-08-22T09:35:14.041Z,27.80
2018-08-22T09:37:43.508Z,27.70
2018-08-22T09:40:12.022Z,27.80
2018-08-22T09:42:40.599Z,28.00
2018-08-22T09:45:09.053Z,28.10
2018-08-22T09:47:37.519Z,28.20
2018-08-22T09:50:06.332Z,28.20
2018-08-22T09:52:34.870Z,28.20
2018-08-22T09:55:05.862Z,28.20
2018-08-22T09:57:34.328Z,28.30
2018-08-22T10:00:03.273Z,28.30
2018-08-22T10:02:31.883Z,28.30
2018-08-22T10:05:00.390Z,28.50
2018-08-22T10:07:28.876Z,28.70
2018-08-22T10:09:57.578Z,28.70
2018-08-22T10:12:26.181Z,28.70
2018-08-22T10:14:54.654Z,28.80
2018-08-22T10:17:23.175Z,29.00
2018-08-22T10:19:51.753Z,29.10
2018-08-22T10:22:20.223Z,29.10
2018-08-22T10:24:48.668Z,29.20
2018-08-22T10:27:17.149Z,29.20
2018-08-22T10:29:45.607Z,29.10
2018-08-22T10:32:14.104Z,29.20
2018-08-22T10:34:42.584Z,29.00
2018-08-22T10:37:11.043Z,28.90
2018-08-22T10:39:39.479Z,28.90
2018-08-22T10:42:07.926Z,28.90
2018-08-22T10:44:36.410Z,28.90
2018-08-22T10:47:05.007Z,28.80
2018-08-22T10:49:33.507Z,29.00
2018-08-22T10:52:02.120Z,29.30
2018-08-22T10:54:30.587Z,29.50
2018-08-22T10:56:59.039Z,29.70
2018-08-22T10:59:27.510Z,29.70
2018-08-22T11:01:55.973Z,29.80
2018-08-22T11:04:24.612Z,29.80
2018-08-22T11:06:53.068Z,29.80
2018-08-22T11:09:21.536Z,29.60
2018-08-22T11:11:49.987Z,29.60
2018-08-22T11:14:18.451Z,29.60
2018-08-22T11:16:46.907Z,29.40
2018-08-22T11:19:15.421Z,29.40
2018-08-22T11:21:55.096Z,29.50
2018-08-22T11:24:34.619Z,29.40
2018-08-22T11:27:14.270Z,29.10
2018-08-22T11:29:53.947Z,28.90
2018-08-22T11:32:33.539Z,29.10
2018-08-22T11:35:00.908Z,29.30
2018-08-22T11:37:29.425Z,29.30
2018-08-22T11:39:58.899Z,29.30
2018-08-22T11:42:27.347Z,29.30
2018-08-22T11:44:57.536Z,29.30
2018-08-22T11:47:25.968Z,29.40
2018-08-22T11:49:54.414Z,29.40
2018-08-22T11:52:22.875Z,29.50
2018-08-22T11:54:51.518Z,29.60
2018-08-22T11:57:21.263Z,29.70
2018-08-22T11:59:49.738Z,29.80
2018-08-22T12:02:19.351Z,29.80
2018-08-22T12:04:48.767Z,29.90
2018-08-22T12:07:17.276Z,30.00
2018-08-22T12:09:45.796Z,29.80
2018-08-22T12:12:14.215Z,29.70
2018-08-22T12:14:42.718Z,29.60
2018-08-22T12:17:11.309Z,29.40
2018-08-22T12:19:39.812Z,29.40
2018-08-22T12:22:08.304Z,29.30
2018-08-22T12:24:36.758Z,29.20
2018-08-22T12:27:05.572Z,29.20
2018-08-22T12:29:34.039Z,29.40
2018-08-22T12:32:02.470Z,29.50
2018-08-22T12:34:30.928Z,29.50
2018-08-22T12:36:59.377Z,29.40
2018-08-22T12:39:27.833Z,29.20
2018-08-22T12:41:56.295Z,28.90
2018-08-22T12:44:24.805Z,28.90
2018-08-22T12:46:53.387Z,28.90
2018-08-22T12:49:22.605Z,29.00
2018-08-22T12:51:51.228Z,29.10
2018-08-22T12:54:19.760Z,29.20
2018-08-22T12:56:49.185Z,29.10
2018-08-22T12:59:17.632Z,29.00
2018-08-22T13:01:46.505Z,28.90
2018-08-22T13:04:14.962Z,29.00
2018-08-22T13:06:43.407Z,29.10
2018-08-22T13:09:12.098Z,29.10
2018-08-22T13:11:40.918Z,29.00
2018-08-22T13:14:09.694Z,29.00
2018-08-22T13:16:38.167Z,29.20
2018-08-22T13:19:06.647Z,29.40
2018-08-22T13:21:35.166Z,29.60
2018-08-22T13:24:03.661Z,29.70
2018-08-22T13:26:32.927Z,29.70
2018-08-22T13:29:01.383Z,29.80
2018-08-22T13:31:29.855Z,29.80
2018-08-22T13:33:58.310Z,29.80
2018-08-22T13:36:26.745Z,29.70
2018-08-22T13:38:55.209Z,29.60
2018-08-22T13:41:24.009Z,29.60
2018-08-22T13:43:52.426Z,29.50
2018-08-22T13:46:20.884Z,29.40
2018-08-22T13:48:49.329Z,29.30
2018-08-22T13:51:17.791Z,29.30
2018-08-22T13:53:46.222Z,29.40
2018-08-22T13:56:14.690Z,29.30
2018-08-22T13:58:43.650Z,29.20
2018-08-22T14:01:12.115Z,29.00
2018-08-22T14:03:40.579Z,28.90
2018-08-22T14:06:09.835Z,28.90
2018-08-22T14:08:38.623Z,29.00
2018-08-22T14:11:07.491Z,29.20
2018-08-22T14:13:36.332Z,29.20
2018-08-22T14:16:05.455Z,29.30
2018-08-22T14:18:33.987Z,29.40
2018-08-22T14:21:03.059Z,29.50
2018-08-22T14:23:32.653Z,29.50
2018-08-22T14:26:01.924Z,29.40
2018-08-22T14:28:30.366Z,29.40
2018-08-22T14:30:59.759Z,29.30
2018-08-22T14:33:28.595Z,29.40
2018-08-22T14:35:57.351Z,29.40
2018-08-22T14:38:25.848Z,29.40
2018-08-22T14:40:54.727Z,29.30
2018-08-22T14:43:23.161Z,29.30
2018-08-22T14:45:51.635Z,29.30
2018-08-22T14:48:20.075Z,29.30
2018-08-22T14:50:48.534Z,29.20
2018-08-22T14:53:16.962Z,29.10
2018-08-22T14:55:45.878Z,29.10
2018-08-22T14:58:14.408Z,29.10
2018-08-22T15:00:43.234Z,29.10
2018-08-22T15:03:11.988Z,28.90
2018-08-22T15:05:40.327Z,28.80
2018-08-22T15:08:09.347Z,28.80
2018-08-22T15:10:38.427Z,28.80
2018-08-22T15:13:07.179Z,28.80
2018-08-22T15:15:36.142Z,28.80
2018-08-22T15:18:04.702Z,28.80
2018-08-22T15:20:33.128Z,28.90
2018-08-22T15:23:01.590Z,28.90
2018-08-22T15:25:30.029Z,28.90
2018-08-22T15:27:58.750Z,28.90
2018-08-22T15:30:27.406Z,28.80
2018-08-22T15:32:55.898Z,28.80
2018-08-22T15:35:24.951Z,28.80
2018-08-22T15:37:53.398Z,28.80
2018-08-22T15:40:21.855Z,28.90
2018-08-22T15:42:50.401Z,28.90
2018-08-22T15:45:19.150Z,28.90
2018-08-22T15:47:47.600Z,28.80
2018-08-22T15:50:16.035Z,28.80
2018-08-22T15:52:44.483Z,28.80
2018-08-22T15:55:16.762Z,28.70
2018-08-22T15:58:05.631Z,28.60
2018-08-22T16:00:42.167Z,28.60
2018-08-22T16:03:11.283Z,28.50
2018-08-22T16:05:40.974Z,28.50
2018-08-22T16:08:10.292Z,28.50
2018-08-22T16:10:38.736Z,28.50
2018-08-22T16:13:14.649Z,28.50
2018-08-22T16:15:43.087Z,28.50
2018-08-22T16:18:11.929Z,28.50
2018-08-22T16:20:48.122Z,28.40
2018-08-22T16:23:16.674Z,28.40
2018-08-22T16:25:47.759Z,28.30
2018-08-22T16:28:17.260Z,28.20
2018-08-22T16:30:56.770Z,28.20
2018-08-22T16:33:15.165Z,28.10
2018-08-22T16:35:43.574Z,28.10
2018-08-22T16:38:13.349Z,28.10
2018-08-22T16:40:47.649Z,28.00
2018-08-22T16:43:30.414Z,28.00
2018-08-22T16:45:59.683Z,27.90
2018-08-22T16:48:28.135Z,27.90
2018-08-22T16:50:57.896Z,27.80
2018-08-22T16:53:26.943Z,27.70
2018-08-22T16:55:55.382Z,27.70
2018-08-22T16:58:24.201Z,27.60
2018-08-22T17:00:52.644Z,27.60
2018-08-22T17:03:21.104Z,27.50
2018-08-22T17:05:49.609Z,27.40
2018-08-22T17:08:18.440Z,27.30
2018-08-22T17:10:57.478Z,27.30
2018-08-22T17:13:36.958Z,27.20
2018-08-22T17:16:06.115Z,27.20
2018-08-22T17:18:35.887Z,27.10
2018-08-22T17:21:04.682Z,27.10
2018-08-22T17:23:33.144Z,27.00
2018-08-22T17:26:01.578Z,27.00
2018-08-22T17:28:35.287Z,26.90
2018-08-22T17:31:03.854Z,26.80
2018-08-22T17:33:37.575Z,26.70
2018-08-22T17:36:07.115Z,26.70
2018-08-22T17:38:36.583Z,26.60
2018-08-22T17:41:05.143Z,26.50
2018-08-22T17:43:49.082Z,26.40
2018-08-22T17:46:17.503Z,26.30
2018-08-22T17:48:47.095Z,26.20
2018-08-22T17:51:15.519Z,26.10
2018-08-22T17:53:44.002Z,26.10
2018-08-22T17:56:12.481Z,26.00
2018-08-22T17:58:41.168Z,25.80
2018-08-22T18:01:09.633Z,25.70
2018-08-22T18:03:38.153Z,25.70
2018-08-22T18:06:07.103Z,25.60
2018-08-22T18:08:35.564Z,25.60
2018-08-22T18:11:04.119Z,25.50
2018-08-22T18:13:32.950Z,25.50
2018-08-22T18:19:03.667Z,25.30
2018-08-22T18:21:39.291Z,25.20
2018-08-22T18:24:08.646Z,25.10
2018-08-22T18:26:40.004Z,25.10
2018-08-22T18:29:09.028Z,25.00
2018-08-22T18:31:39.021Z,25.00
2018-08-22T18:34:09.289Z,24.90
2018-08-22T18:36:40.224Z,24.80
2018-08-22T18:39:14.760Z,24.70
2018-08-22T18:41:44.519Z,24.60
2018-08-22T18:44:19.376Z,24.50
2018-08-22T18:46:53.394Z,24.40
2018-08-22T18:49:26.155Z,24.30
2018-08-22T18:51:55.378Z,24.10
2018-08-22T18:54:25.409Z,24.00
2018-08-22T18:56:54.602Z,23.90
2018-08-22T18:59:26.352Z,23.80
2018-08-22T19:01:55.787Z,23.70
2018-08-22T19:04:24.970Z,23.70
2018-08-22T19:06:53.490Z,23.70
2018-08-22T19:09:22.295Z,23.60
2018-08-22T19:11:50.727Z,23.60
2018-08-22T19:14:30.484Z,23.50
2018-08-22T19:16:59.942Z,23.50
2018-08-22T19:19:30.408Z,23.50
2018-08-22T19:21:58.841Z,23.50
2018-08-22T19:24:29.125Z,23.40
2018-08-22T19:26:57.998Z,23.40
2018-08-22T19:29:28.201Z,23.30
2018-08-22T19:31:59.509Z,23.20
2018-08-22T19:34:28.586Z,23.20
2018-08-22T19:36:57.937Z,23.10
2018-08-22T19:39:27.009Z,23.00
2018-08-22T19:41:56.405Z,23.00
2018-08-22T19:44:26.172Z,22.90
2018-08-22T19:46:57.792Z,22.80
2018-08-22T19:49:26.823Z,22.70
2018-08-22T19:51:55.355Z,22.70
2018-08-22T19:54:24.370Z,22.60
2018-08-22T19:56:53.941Z,22.60
2018-08-22T19:59:22.508Z,22.50
2018-08-22T20:01:51.054Z,22.50
2018-08-22T20:04:21.815Z,22.40
2018-08-22T20:06:50.622Z,22.40
2018-08-22T20:09:20.837Z,22.30
2018-08-22T20:11:50.156Z,22.20
2018-08-22T20:14:19.510Z,22.20
2018-08-22T20:16:48.078Z,22.10
2018-08-22T20:19:16.773Z,22.10
2018-08-22T20:21:45.348Z,22.00
2018-08-22T20:24:13.964Z,22.00
2018-08-22T20:26:51.325Z,21.90
2018-08-22T20:29:19.823Z,21.90
2018-08-22T20:31:48.344Z,22.00
2018-08-22T20:34:16.863Z,22.00
2018-08-22T20:36:48.364Z,22.10
2018-08-22T20:39:16.862Z,22.00
2018-08-22T20:41:45.606Z,22.00
2018-08-22T20:44:19.071Z,22.00
2018-08-22T20:46:49.101Z,21.90
2018-08-22T20:49:21.132Z,21.90
2018-08-22T20:51:49.628Z,21.90
2018-08-22T20:54:20.735Z,21.90
2018-08-22T20:56:55.148Z,21.80
2018-08-22T20:59:23.634Z,21.80
2018-08-22T21:01:57.739Z,21.80
2018-08-22T21:04:26.227Z,21.70
2018-08-22T21:06:55.760Z,21.70
2018-08-22T21:09:24.197Z,21.60
2018-08-22T21:11:56.033Z,21.60
2018-08-22T21:14:25.491Z,21.50
2018-08-22T21:16:53.976Z,21.50
2018-08-22T21:19:22.427Z,21.50
2018-08-22T21:21:50.914Z,21.50
2018-08-22T21:24:19.367Z,21.50
2018-08-22T21:26:47.835Z,21.40
2018-08-22T21:29:16.319Z,21.40
2018-08-22T21:31:44.791Z,21.40
2018-08-22T21:34:18.447Z,21.30
2018-08-22T21:36:46.923Z,21.30
2018-08-22T21:39:20.622Z,21.20
2018-08-22T21:41:49.271Z,21.20
2018-08-22T21:44:19.066Z,21.20
2018-08-22T21:47:00.561Z,21.20
2018-08-22T21:49:29.427Z,21.20
2018-08-22T21:52:00.006Z,21.10
2018-08-22T21:54:28.743Z,21.10
2018-08-22T21:56:57.739Z,21.00
2018-08-22T21:59:26.299Z,21.00
2018-08-22T22:03:24.540Z,20.90
2018-08-22T22:06:00.632Z,20.90
2018-08-22T22:08:29.094Z,20.90
2018-08-22T22:10:59.195Z,20.90
2018-08-22T22:13:27.781Z,20.90
2018-08-22T22:15:59.888Z,20.90
2018-08-22T22:18:28.444Z,20.90
2018-08-22T22:21:07.310Z,20.80
2018-08-22T22:23:41.451Z,20.80
2018-08-22T22:26:10.407Z,20.70
2018-08-22T22:28:39.619Z,20.60
2018-08-22T22:31:10.247Z,20.60
2018-08-22T22:33:43.191Z,20.50
2018-08-22T22:36:12.673Z,20.50
2018-08-22T22:38:41.153Z,20.40
2018-08-22T22:41:10.343Z,20.30
2018-08-22T22:43:39.577Z,20.40
2018-08-22T22:46:08.084Z,20.30
2018-08-22T22:48:40.356Z,20.30
2018-08-22T22:51:09.768Z,20.30
2018-08-22T22:53:38.372Z,20.20
2018-08-22T22:56:07.103Z,20.20
2018-08-22T22:58:36.792Z,20.20
2018-08-22T23:01:06.299Z,20.20
2018-08-22T23:03:34.766Z,20.10
2018-08-22T23:06:03.223Z,20.10
2018-08-22T23:08:31.725Z,20.10
2018-08-22T23:11:00.187Z,20.00
2018-08-22T23:13:29.427Z,20.00
2018-08-22T23:15:57.930Z,19.90
2018-08-22T23:18:26.441Z,19.90
2018-08-22T23:20:54.938Z,19.90
2018-08-22T23:23:35.491Z,19.80
2018-08-22T23:26:11.071Z,19.80
2018-08-22T23:28:39.716Z,19.80
2018-08-22T23:31:08.395Z,19.80
2018-08-22T23:33:36.900Z,19.70
2018-08-22T23:36:05.798Z,19.70
2018-08-22T23:38:35.902Z,19.70
2018-08-22T23:41:04.388Z,19.60
2018-08-22T23:43:38.883Z,19.60
2018-08-22T23:46:09.326Z,19.60
2018-08-22T23:48:38.311Z,19.50
2018-08-22T23:51:08.782Z,19.50
2018-08-22T23:53:52.575Z,19.40
2018-08-22T23:56:25.440Z,19.40
2018-08-22T23:58:54.397Z,19.40
